createdAt,value
2019-02-17T05:00:52.689Z,-4.31
2019-02-17T05:01:51.431Z,-4.17
2019-02-17T05:02:52.221Z,-4.27
2019-02-17T05:03:52.656Z,-4.15
2019-02-17T05:04:51.652Z,-4.12
2019-02-17T05:05:51.845Z,-4.09
2019-02-17T05:06:52.078Z,-4.16
2019-02-17T05:07:52.257Z,-4.17
2019-02-17T05:08:52.441Z,-4.06
2019-02-17T05:09:52.727Z,-4.10
2019-02-17T05:10:52.777Z,-4.02
2019-02-17T05:11:52.973Z,-4.10
2019-02-17T05:12:53.192Z,-4.17
2019-02-17T05:13:53.401Z,-4.16
2019-02-17T05:14:53.813Z,-4.17
2019-02-17T05:15:53.769Z,-4.07
2019-02-17T05:16:53.934Z,-4.12
2019-02-17T05:17:54.168Z,-4.19
2019-02-17T05:18:55.203Z,-4.19
2019-02-17T05:19:54.458Z,-4.13
2019-02-17T05:20:54.624Z,-4.09
2019-02-17T05:21:54.807Z,-4.06
2019-02-17T05:22:55.048Z,-4.13
2019-02-17T05:23:55.209Z,-4.17
2019-02-17T05:24:55.371Z,-4.16
2019-02-17T05:25:55.624Z,-4.15
2019-02-17T05:26:55.639Z,-4.12
2019-02-17T05:27:55.820Z,-4.16
2019-02-17T05:28:56.667Z,-4.17
2019-02-17T05:29:57.171Z,-4.15
2019-02-17T05:30:57.171Z,-4.20
2019-02-17T05:31:56.520Z,-4.26
2019-02-17T05:32:56.694Z,-4.17
2019-02-17T05:33:56.778Z,-4.30
2019-02-17T05:34:59.091Z,-4.28
2019-02-17T05:35:58.178Z,-4.27
2019-02-17T05:36:57.387Z,-4.26
2019-02-17T05:37:57.436Z,-4.38
2019-02-17T05:38:57.603Z,-4.40
2019-02-17T05:39:57.878Z,-4.27
2019-02-17T05:40:57.896Z,-4.37
2019-02-17T05:41:58.149Z,-4.38
2019-02-17T05:42:58.250Z,-4.41
2019-02-17T05:43:58.518Z,-4.36
2019-02-17T05:44:58.535Z,-4.33
2019-02-17T05:45:58.643Z,-4.38
2019-02-17T05:46:58.797Z,-4.41
2019-02-17T05:47:59.007Z,-4.38
2019-02-17T05:48:59.145Z,-4.37
2019-02-17T05:49:59.311Z,-4.40
2019-02-17T05:50:59.512Z,-4.46
2019-02-17T05:51:59.678Z,-4.56
2019-02-17T05:52:59.824Z,-4.44
2019-02-17T05:53:59.955Z,-4.48
2019-02-17T05:55:00.103Z,-4.54
2019-02-17T05:56:00.330Z,-4.46
2019-02-17T05:57:01.074Z,-4.31
2019-02-17T05:58:00.696Z,-4.33
2019-02-17T05:59:00.899Z,-4.20
2019-02-17T06:00:01.101Z,-4.12
2019-02-17T06:01:04.109Z,-3.92
2019-02-17T06:02:02.470Z,-3.89
2019-02-17T06:03:01.617Z,-3.77
2019-02-17T06:04:01.757Z,-3.77
2019-02-17T06:05:02.256Z,-3.74
2019-02-17T06:06:02.950Z,-3.61
2019-02-17T06:07:02.366Z,-3.62
2019-02-17T06:08:02.542Z,-3.58
2019-02-17T06:09:02.701Z,-3.61
2019-02-17T06:10:02.890Z,-3.61
2019-02-17T06:11:03.202Z,-3.57
2019-02-17T06:12:03.226Z,-3.55
2019-02-17T06:13:03.384Z,-3.68
2019-02-17T06:14:03.530Z,-3.61
2019-02-17T06:15:03.671Z,-3.65
2019-02-17T06:16:03.828Z,-3.69
2019-02-17T06:17:03.970Z,-3.72
2019-02-17T06:18:04.086Z,-3.72
2019-02-17T06:19:04.263Z,-3.70
2019-02-17T06:20:04.567Z,-3.72
2019-02-17T06:21:04.632Z,-3.76
2019-02-17T06:22:04.759Z,-3.70
2019-02-17T06:23:04.937Z,-3.64
2019-02-17T06:24:05.133Z,-3.70
2019-02-17T06:25:05.373Z,-3.69
2019-02-17T06:26:05.594Z,-3.68
2019-02-17T06:27:05.706Z,-3.76
2019-02-17T06:28:05.847Z,-3.70
2019-02-17T06:29:06.601Z,-3.70
2019-02-17T06:30:06.144Z,-3.68
2019-02-17T06:31:13.919Z,-3.70
2019-02-17T06:32:08.533Z,-3.69
2019-02-17T06:33:06.631Z,-3.72
2019-02-17T06:34:06.882Z,-3.70
2019-02-17T06:35:07.087Z,-3.74
2019-02-17T06:36:07.211Z,-3.80
2019-02-17T06:37:07.417Z,-3.80
2019-02-17T06:38:07.560Z,-3.79
2019-02-17T06:39:07.717Z,-3.81
2019-02-17T06:40:07.846Z,-3.81
2019-02-17T06:41:08.034Z,-3.79
2019-02-17T06:42:08.171Z,-3.88
2019-02-17T06:43:08.351Z,-3.76
2019-02-17T06:44:08.490Z,-3.81
2019-02-17T06:45:08.657Z,-3.72
2019-02-17T06:46:08.804Z,-3.65
2019-02-17T06:47:08.976Z,-3.69
2019-02-17T06:48:09.112Z,-3.69
2019-02-17T06:49:09.342Z,-3.68
2019-02-17T06:50:09.502Z,-3.72
2019-02-17T06:51:09.701Z,-3.72
2019-02-17T06:52:09.852Z,-3.70
2019-02-17T06:53:09.989Z,-3.69
2019-02-17T06:54:10.181Z,-3.76
2019-02-17T06:55:10.349Z,-3.76
2019-02-17T06:56:12.514Z,-3.68
2019-02-17T06:57:10.803Z,-3.74
2019-02-17T06:58:10.967Z,-3.69
2019-02-17T06:59:11.615Z,-3.84
2019-02-17T07:00:11.420Z,-3.69
2019-02-17T07:01:11.557Z,-3.70
2019-02-17T07:02:11.693Z,-3.64
2019-02-17T07:03:14.202Z,-3.49
2019-02-17T07:04:12.284Z,-3.44
2019-02-17T07:05:12.258Z,-3.39
2019-02-17T07:06:12.481Z,-3.37
2019-02-17T07:07:12.728Z,-3.37
2019-02-17T07:08:12.789Z,-3.37
2019-02-17T07:09:13.041Z,-3.39
2019-02-17T07:10:13.221Z,-3.40
2019-02-17T07:11:13.497Z,-3.39
2019-02-17T07:12:13.509Z,-3.40
2019-02-17T07:13:13.712Z,-3.33
2019-02-17T07:14:13.848Z,-3.40
2019-02-17T07:15:14.730Z,-3.36
2019-02-17T07:16:14.301Z,-3.36
2019-02-17T07:17:15.352Z,-3.39
2019-02-17T07:18:14.615Z,-3.28
2019-02-17T07:19:14.773Z,-3.31
2019-02-17T07:20:14.992Z,-3.31
2019-02-17T07:21:15.197Z,-3.36
2019-02-17T07:22:16.184Z,-3.25
2019-02-17T07:23:15.530Z,-3.16
2019-02-17T07:24:15.525Z,-3.21
2019-02-17T07:25:15.660Z,-3.13
2019-02-17T07:26:17.248Z,-2.98
2019-02-17T07:27:17.695Z,-2.74
2019-02-17T07:28:16.653Z,-2.64
2019-02-17T07:29:17.204Z,-2.58
2019-02-17T07:30:16.414Z,-2.37
2019-02-17T07:31:16.570Z,-2.10
2019-02-17T07:32:16.775Z,-1.96
2019-02-17T07:33:17.007Z,-1.71
2019-02-17T07:34:17.302Z,-1.59
2019-02-17T07:35:17.271Z,-1.26
2019-02-17T07:36:17.472Z,-1.08
2019-02-17T07:37:19.334Z,-0.74
2019-02-17T07:38:18.848Z,-0.65
2019-02-17T07:39:18.006Z,-0.39
2019-02-17T07:40:18.261Z,-0.03
2019-02-17T07:41:18.320Z,0.28
2019-02-17T07:42:18.435Z,0.49
2019-02-17T07:43:18.618Z,0.89
2019-02-17T07:44:18.704Z,1.13
2019-02-17T07:45:18.841Z,1.60
2019-02-17T07:46:19.155Z,1.93
2019-02-17T07:47:19.184Z,2.51
2019-02-17T07:48:20.332Z,2.95
2019-02-17T07:49:19.630Z,3.25
2019-02-17T07:50:19.793Z,3.80
2019-02-17T07:51:19.936Z,4.20
2019-02-17T07:52:20.686Z,4.44
2019-02-17T07:53:20.999Z,4.74
2019-02-17T07:54:21.627Z,5.06
2019-02-17T07:55:20.794Z,5.19
2019-02-17T07:56:21.055Z,5.73
2019-02-17T07:57:22.296Z,6.38
2019-02-17T07:58:22.320Z,6.97
2019-02-17T07:59:21.525Z,7.69
2019-02-17T08:00:21.696Z,8.24
2019-02-17T08:01:21.826Z,8.67
2019-02-17T08:02:22.079Z,9.13
2019-02-17T08:03:22.141Z,9.68
2019-02-17T08:04:22.388Z,9.99
2019-02-17T08:05:22.545Z,10.13
2019-02-17T08:06:22.720Z,10.80
2019-02-17T08:07:22.874Z,11.28
2019-02-17T08:08:22.995Z,11.44
2019-02-17T08:09:23.139Z,11.90
2019-02-17T08:10:23.286Z,11.70
2019-02-17T08:11:25.825Z,11.87
2019-02-17T08:12:23.579Z,11.63
2019-02-17T08:13:23.801Z,11.38
2019-02-17T08:14:24.111Z,11.20
2019-02-17T08:15:24.107Z,11.09
2019-02-17T08:16:24.343Z,10.83
2019-02-17T08:17:24.495Z,10.78
2019-02-17T08:18:25.231Z,10.86
2019-02-17T08:19:25.754Z,10.70
2019-02-17T08:20:25.661Z,10.63
2019-02-17T08:21:25.182Z,10.63
2019-02-17T08:22:25.374Z,10.62
2019-02-17T08:23:25.492Z,10.70
2019-02-17T08:24:25.796Z,11.01
2019-02-17T08:25:25.846Z,11.31
2019-02-17T08:26:26.115Z,11.63
2019-02-17T08:27:26.200Z,12.13
2019-02-17T08:28:26.342Z,12.18
2019-02-17T08:29:26.503Z,12.34
2019-02-17T08:30:26.969Z,12.43
2019-02-17T08:31:26.884Z,12.46
2019-02-17T08:32:27.005Z,12.59
2019-02-17T08:33:27.216Z,12.74
2019-02-17T08:34:27.473Z,13.04
2019-02-17T08:35:27.612Z,12.91
2019-02-17T08:36:27.756Z,13.07
2019-02-17T08:37:27.986Z,13.21
2019-02-17T08:38:28.124Z,13.06
2019-02-17T08:39:28.262Z,13.12
2019-02-17T08:40:28.464Z,13.16
2019-02-17T08:41:28.688Z,13.28
2019-02-17T08:42:29.014Z,13.75
2019-02-17T08:43:29.087Z,13.86
2019-02-17T08:44:29.158Z,14.69
2019-02-17T08:45:29.367Z,15.43
2019-02-17T08:46:29.563Z,16.22
2019-02-17T08:47:29.769Z,16.62
2019-02-17T08:48:29.929Z,16.96
2019-02-17T08:49:30.179Z,17.21
2019-02-17T08:50:30.226Z,17.12
2019-02-17T08:51:30.560Z,17.17
2019-02-17T08:52:30.771Z,17.33
2019-02-17T08:53:30.838Z,17.39
2019-02-17T08:54:31.077Z,16.99
2019-02-17T08:55:31.222Z,16.57
2019-02-17T08:56:31.550Z,16.67
2019-02-17T08:57:31.628Z,16.67
2019-02-17T08:58:31.786Z,16.55
2019-02-17T08:59:31.942Z,16.07
2019-02-17T09:15:35.955Z,16.85
2019-02-17T09:16:38.443Z,16.88
2019-02-17T09:17:38.424Z,16.78
2019-02-17T09:18:38.025Z,16.95
2019-02-17T09:19:38.953Z,17.12
2019-02-17T09:20:37.847Z,17.49
2019-02-17T09:21:38.520Z,17.47
2019-02-17T09:22:38.143Z,17.65
2019-02-17T09:23:38.288Z,17.98
2019-02-17T09:24:38.415Z,18.16
2019-02-17T09:25:38.610Z,18.47
2019-02-17T09:26:38.711Z,18.31
2019-02-17T09:27:38.854Z,18.49
2019-02-17T10:10:21.540Z,19.20
2019-02-17T10:11:21.717Z,19.32
2019-02-17T10:12:33.299Z,19.46
2019-02-17T10:13:24.316Z,19.50
2019-02-17T10:14:23.942Z,19.78
2019-02-17T10:15:51.535Z,20.08
2019-02-17T10:16:24.103Z,20.31
2019-02-17T10:17:25.005Z,20.41
2019-02-17T10:18:25.431Z,20.54
2019-02-17T10:19:25.500Z,20.63
2019-02-17T10:20:24.784Z,20.94
2019-02-17T10:21:25.204Z,21.31
2019-02-17T10:22:24.989Z,21.46
2019-02-17T10:23:25.019Z,21.42
2019-02-17T10:24:25.215Z,21.79
2019-02-17T10:25:26.125Z,21.90
2019-02-17T10:26:25.778Z,21.91
2019-02-17T10:27:26.977Z,21.94
2019-02-17T10:28:26.596Z,21.79
2019-02-17T10:29:27.142Z,21.81
2019-02-17T10:30:27.002Z,21.90
2019-02-17T10:31:26.558Z,21.73
2019-02-17T10:32:36.305Z,21.66
2019-02-17T10:33:28.052Z,21.66
2019-02-17T10:37:11.426Z,22.14
2019-02-17T10:38:12.267Z,22.23
2019-02-17T10:39:14.842Z,22.06
2019-02-17T10:40:35.409Z,21.85
2019-02-17T10:41:19.320Z,21.85
2019-02-17T10:46:00.881Z,21.85
2019-02-17T10:47:00.974Z,21.66
2019-02-17T10:48:23.015Z,21.68
2019-02-17T10:49:04.988Z,21.40
2019-02-17T10:50:04.164Z,21.28
2019-02-17T10:51:03.641Z,21.21
2019-02-17T10:52:08.582Z,21.30
2019-02-17T10:53:14.964Z,20.91
2019-02-17T10:54:11.428Z,20.69
2019-02-17T10:55:11.066Z,20.68
2019-02-17T10:56:04.737Z,20.48
2019-02-17T10:57:04.274Z,20.53
2019-02-17T10:58:05.173Z,20.57
2019-02-17T10:59:59.464Z,20.71
2019-02-17T11:30:50.114Z,19.94
2019-02-17T11:31:59.705Z,19.95
2019-02-17T11:33:01.559Z,19.94
2019-02-17T11:33:52.710Z,20.02
2019-02-17T11:34:51.663Z,20.20
2019-02-17T11:35:52.191Z,20.50
2019-02-17T11:36:51.739Z,20.26
2019-02-17T11:37:51.855Z,20.27
2019-02-17T11:38:52.165Z,20.42
2019-02-17T11:39:52.325Z,20.42
2019-02-17T11:40:52.478Z,20.20
2019-02-17T11:41:52.657Z,20.33
2019-02-17T11:42:52.842Z,20.19
2019-02-17T11:43:52.990Z,20.23
2019-02-17T11:44:53.137Z,20.05
2019-02-17T11:45:53.312Z,19.95
2019-02-17T11:46:53.466Z,19.82
2019-02-17T11:47:53.631Z,20.10
2019-02-17T11:48:53.778Z,20.07
2019-02-17T11:49:53.959Z,20.23
2019-02-17T11:50:54.068Z,20.30
2019-02-17T11:51:54.311Z,20.71
2019-02-17T11:52:54.509Z,20.97
2019-02-17T11:53:54.614Z,21.00
2019-02-17T11:54:54.782Z,20.90
2019-02-17T11:55:55.015Z,21.05
2019-02-17T11:56:55.257Z,20.73
2019-02-17T11:57:55.341Z,20.57
2019-02-17T11:58:55.521Z,20.48
2019-02-17T11:59:55.629Z,20.13
2019-02-17T12:00:55.861Z,20.31
2019-02-17T12:01:56.029Z,20.61
2019-02-17T12:02:56.250Z,20.87
2019-02-17T12:03:56.460Z,21.11
2019-02-17T12:04:56.652Z,21.19
2019-02-17T12:05:56.960Z,21.24
2019-02-17T12:06:56.991Z,21.18
2019-02-17T12:07:57.180Z,21.24
2019-02-17T12:08:57.466Z,21.06
2019-02-17T12:09:57.601Z,21.22
2019-02-17T12:10:57.788Z,21.38
2019-02-17T12:11:58.055Z,21.34
2019-02-17T12:12:58.293Z,21.30
2019-02-17T12:13:58.621Z,21.31
2019-02-17T12:14:58.748Z,21.18
2019-02-17T12:15:58.777Z,20.96
2019-02-17T12:16:59.309Z,20.96
2019-02-17T12:17:59.430Z,21.13
2019-02-17T12:19:00.528Z,21.28
2019-02-17T12:20:00.305Z,21.67
2019-02-17T12:20:59.793Z,21.77
2019-02-17T12:21:59.986Z,21.91
2019-02-17T12:23:00.168Z,21.83
2019-02-17T12:24:02.145Z,22.09
2019-02-17T12:25:00.359Z,22.31
2019-02-17T12:26:00.562Z,22.29
2019-02-17T12:27:00.700Z,22.46
2019-02-17T12:28:00.913Z,22.91
2019-02-17T12:29:01.060Z,23.22
2019-02-17T12:30:01.243Z,23.60
2019-02-17T12:31:01.446Z,23.97
2019-02-17T12:32:01.587Z,24.33
2019-02-17T12:33:01.751Z,24.42
2019-02-17T12:34:01.921Z,24.51
2019-02-17T12:35:02.103Z,24.52
2019-02-17T12:36:02.273Z,24.67
2019-02-17T12:37:02.403Z,24.64
2019-02-17T12:38:02.545Z,24.60
2019-02-17T12:39:02.669Z,24.83
2019-02-17T12:40:02.904Z,25.04
2019-02-17T12:41:03.147Z,25.48
2019-02-17T12:42:03.319Z,25.83
2019-02-17T12:43:03.456Z,25.91
2019-02-17T12:44:03.617Z,26.49
2019-02-17T12:45:03.774Z,27.16
2019-02-17T13:06:22.286Z,30.06
2019-02-17T13:07:24.413Z,30.21
2019-02-17T13:08:23.764Z,30.48
2019-02-17T13:09:24.197Z,30.78
2019-02-17T13:10:24.289Z,31.12
2019-02-17T13:11:24.354Z,31.53
2019-02-17T13:12:24.749Z,31.16
2019-02-17T13:13:24.997Z,30.78
2019-02-17T13:14:24.914Z,30.37
2019-02-17T13:15:25.495Z,30.28
2019-02-17T13:16:25.593Z,29.82
2019-02-17T13:17:26.845Z,28.45
2019-02-17T13:18:25.690Z,27.74
2019-02-17T13:19:26.432Z,27.66
2019-02-17T13:20:26.339Z,27.80
2019-02-17T13:21:26.419Z,28.23
2019-02-17T13:22:26.984Z,27.87
2019-02-17T13:23:26.490Z,28.11
2019-02-17T13:24:27.677Z,28.24
2019-02-17T13:25:29.358Z,27.42
2019-02-17T13:26:26.914Z,27.55
2019-02-17T13:27:27.025Z,27.42
2019-02-17T13:28:27.342Z,27.20
2019-02-17T13:29:27.638Z,27.39
2019-02-17T13:30:27.631Z,27.38
2019-02-17T13:31:27.959Z,27.52
2019-02-17T13:32:28.005Z,27.76
2019-02-17T13:33:38.299Z,28.11
2019-02-17T13:34:29.487Z,28.03
2019-02-17T13:35:28.396Z,27.71
2019-02-17T13:36:30.211Z,27.66
2019-02-17T13:37:30.290Z,27.12
2019-02-17T13:38:28.903Z,27.21
2019-02-17T13:39:29.343Z,27.11
2019-02-17T13:40:29.540Z,27.25
2019-02-17T13:41:29.766Z,27.06
2019-02-17T13:42:30.532Z,26.44
2019-02-17T13:43:30.421Z,26.16
2019-02-17T13:44:30.992Z,25.51
2019-02-17T13:45:30.441Z,25.05
2019-02-17T13:46:31.228Z,24.87
2019-02-17T13:47:30.884Z,24.99
2019-02-17T13:48:31.011Z,25.23
2019-02-17T13:49:31.230Z,24.46
2019-02-17T13:50:31.279Z,24.31
2019-02-17T13:51:31.617Z,24.63
2019-02-17T13:52:32.201Z,24.61
2019-02-17T13:53:34.056Z,24.61
2019-02-17T13:54:33.235Z,24.75
2019-02-17T13:55:32.654Z,24.94
2019-02-17T13:56:32.530Z,24.87
2019-02-17T13:57:33.679Z,24.46
2019-02-17T13:58:32.763Z,24.36
2019-02-17T13:59:33.166Z,23.04
2019-02-17T14:00:33.254Z,22.94
2019-02-17T14:01:33.433Z,23.12
2019-02-17T14:02:33.553Z,22.93
2019-02-17T14:03:33.845Z,22.52
